sensor_id;sensor_type;location;lat;lon;timestamp;temperature;humidity
66576;SHT31;53428;47.686;16.584;2023-10-19T00:00:38;9.34;93.85
66576;SHT31;53428;47.686;16.584;2023-10-19T00:05:39;9.35;93.64
66576;SHT31;53428;47.686;16.584;2023-10-19T00:10:42;9.45;93.36
66576;SHT31;53428;47.686;16.584;2023-10-19T00:15:43;9.52;93.01
66576;SHT31;53428;47.686;16.584;2023-10-19T00:20:54;9.52;93.37
66576;SHT31;53428;47.686;16.584;2023-10-19T00:26:18;9.44;93.89
66576;SHT31;53428;47.686;16.584;2023-10-19T00:31:19;9.38;93.98
66576;SHT31;53428;47.686;16.584;2023-10-19T00:36:22;9.41;93.97
66576;SHT31;53428;47.686;16.584;2023-10-19T00:41:24;9.45;93.88
66576;SHT31;53428;47.686;16.584;2023-10-19T00:46:28;9.45;94.08
66576;SHT31;53428;47.686;16.584;2023-10-19T00:51:45;9.47;94.08
66576;SHT31;53428;47.686;16.584;2023-10-19T00:57:02;9.39;94.41
66576;SHT31;53428;47.686;16.584;2023-10-19T01:02:11;9.27;95.03
66576;SHT31;53428;47.686;16.584;2023-10-19T01:07:19;9.28;94.97
66576;SHT31;53428;47.686;16.584;2023-10-19T01:12:23;9.38;94.88
66576;SHT31;53428;47.686;16.584;2023-10-19T01:17:33;9.37;94.79
66576;SHT31;53428;47.686;16.584;2023-10-19T01:22:37;9.38;94.79
66576;SHT31;53428;47.686;16.584;2023-10-19T01:27:37;9.30;95.23
66576;SHT31;53428;47.686;16.584;2023-10-19T01:32:40;9.23;95.51
66576;SHT31;53428;47.686;16.584;2023-10-19T01:37:41;9.23;95.72
66576;SHT31;53428;47.686;16.584;2023-10-19T01:42:40;9.34;95.46
66576;SHT31;53428;47.686;16.584;2023-10-19T01:47:40;9.54;95.04
66576;SHT31;53428;47.686;16.584;2023-10-19T01:52:40;9.49;95.11
66576;SHT31;53428;47.686;16.584;2023-10-19T01:57:39;9.49;95.20
66576;SHT31;53428;47.686;16.584;2023-10-19T02:02:39;9.45;95.66
66576;SHT31;53428;47.686;16.584;2023-10-19T02:07:39;9.49;95.47
66576;SHT31;53428;47.686;16.584;2023-10-19T02:12:38;9.52;95.38
66576;SHT31;53428;47.686;16.584;2023-10-19T02:17:41;9.56;95.30
66576;SHT31;53428;47.686;16.584;2023-10-19T02:22:40;9.58;95.31
66576;SHT31;53428;47.686;16.584;2023-10-19T02:27:41;9.54;95.61
66576;SHT31;53428;47.686;16.584;2023-10-19T02:32:41;9.56;95.70
66576;SHT31;53428;47.686;16.584;2023-10-19T02:37:41;9.68;95.54
66576;SHT31;53428;47.686;16.584;2023-10-19T02:42:41;9.69;95.54
66576;SHT31;53428;47.686;16.584;2023-10-19T02:47:43;9.72;95.62
66576;SHT31;53428;47.686;16.584;2023-10-19T02:52:43;9.78;95.47
66576;SHT31;53428;47.686;16.584;2023-10-19T02:57:43;9.82;95.59
66576;SHT31;53428;47.686;16.584;2023-10-19T03:02:46;9.79;95.55
66576;SHT31;53428;47.686;16.584;2023-10-19T03:07:46;9.78;95.78
66576;SHT31;53428;47.686;16.584;2023-10-19T03:12:45;9.78;95.95
66576;SHT31;53428;47.686;16.584;2023-10-19T03:17:46;9.75;96.06
66576;SHT31;53428;47.686;16.584;2023-10-19T03:22:46;9.66;96.36
66576;SHT31;53428;47.686;16.584;2023-10-19T03:27:45;9.56;97.03
66576;SHT31;53428;47.686;16.584;2023-10-19T03:32:45;9.47;97.35
66576;SHT31;53428;47.686;16.584;2023-10-19T03:37:44;9.34;98.12
66576;SHT31;53428;47.686;16.584;2023-10-19T03:42:47;9.26;98.47
66576;SHT31;53428;47.686;16.584;2023-10-19T03:47:46;9.16;99.03
66576;SHT31;53428;47.686;16.584;2023-10-19T03:52:48;9.24;99.34
66576;SHT31;53428;47.686;16.584;2023-10-19T03:57:48;9.10;99.47
66576;SHT31;53428;47.686;16.584;2023-10-19T04:02:53;9.10;99.99
66576;SHT31;53428;47.686;16.584;2023-10-19T04:07:54;9.10;99.93
66576;SHT31;53428;47.686;16.584;2023-10-19T04:12:57;8.94;99.99
66576;SHT31;53428;47.686;16.584;2023-10-19T04:17:59;8.83;99.99
66576;SHT31;53428;47.686;16.584;2023-10-19T04:22:59;8.68;99.99
66576;SHT31;53428;47.686;16.584;2023-10-19T04:28:14;8.77;99.99
66576;SHT31;53428;47.686;16.584;2023-10-19T04:33:13;8.76;99.99
66576;SHT31;53428;47.686;16.584;2023-10-19T04:38:15;8.65;99.99
66576;SHT31;53428;47.686;16.584;2023-10-19T04:43:17;8.48;99.99
66576;SHT31;53428;47.686;16.584;2023-10-19T04:48:16;8.48;99.99
66576;SHT31;53428;47.686;16.584;2023-10-19T04:53:15;8.59;99.99
66576;SHT31;53428;47.686;16.584;2023-10-19T04:58:15;8.55;99.99
66576;SHT31;53428;47.686;16.584;2023-10-19T05:03:14;8.42;99.99
66576;SHT31;53428;47.686;16.584;2023-10-19T05:08:17;8.14;99.99
66576;SHT31;53428;47.686;16.584;2023-10-19T05:13:17;8.15;99.99
66576;SHT31;53428;47.686;16.584;2023-10-19T05:18:16;8.22;99.99
66576;SHT31;53428;47.686;16.584;2023-10-19T05:23:16;8.24;99.99
66576;SHT31;53428;47.686;16.584;2023-10-19T05:28:15;8.18;99.99
66576;SHT31;53428;47.686;16.584;2023-10-19T05:33:14;8.31;99.99
66576;SHT31;53428;47.686;16.584;2023-10-19T05:38:14;8.34;99.99
66576;SHT31;53428;47.686;16.584;2023-10-19T05:43:13;8.44;99.99
66576;SHT31;53428;47.686;16.584;2023-10-19T05:48:12;8.51;99.99
66576;SHT31;53428;47.686;16.584;2023-10-19T05:53:12;8.37;99.99
66576;SHT31;53428;47.686;16.584;2023-10-19T05:58:13;8.14;99.01
66576;SHT31;53428;47.686;16.584;2023-10-19T06:03:12;8.10;98.75
66576;SHT31;53428;47.686;16.584;2023-10-19T06:08:11;8.15;97.74
66576;SHT31;53428;47.686;16.584;2023-10-19T06:13:13;8.21;97.05
66576;SHT31;53428;47.686;16.584;2023-10-19T06:18:12;8.39;96.98
66576;SHT31;53428;47.686;16.584;2023-10-19T06:23:12;8.27;96.82
66576;SHT31;53428;47.686;16.584;2023-10-19T06:28:11;8.34;96.28
66576;SHT31;53428;47.686;16.584;2023-10-19T06:33:10;8.48;96.00
66576;SHT31;53428;47.686;16.584;2023-10-19T06:38:10;8.65;95.87
66576;SHT31;53428;47.686;16.584;2023-10-19T06:43:09;8.76;95.39
66576;SHT31;53428;47.686;16.584;2023-10-19T06:48:10;8.91;94.98
66576;SHT31;53428;47.686;16.584;2023-10-19T06:53:10;9.07;94.65
66576;SHT31;53428;47.686;16.584;2023-10-19T06:58:10;9.27;94.08
66576;SHT31;53428;47.686;16.584;2023-10-19T07:03:11;9.42;93.67
66576;SHT31;53428;47.686;16.584;2023-10-19T07:08:10;9.52;93.49
66576;SHT31;53428;47.686;16.584;2023-10-19T07:13:10;9.59;93.90
66576;SHT31;53428;47.686;16.584;2023-10-19T07:18:10;9.74;93.53
66576;SHT31;53428;47.686;16.584;2023-10-19T07:23:10;9.90;92.75
66576;SHT31;53428;47.686;16.584;2023-10-19T07:28:17;10.03;92.61
66576;SHT31;53428;47.686;16.584;2023-10-19T07:33:17;10.25;91.83
66576;SHT31;53428;47.686;16.584;2023-10-19T07:38:16;10.41;91.38
66576;SHT31;53428;47.686;16.584;2023-10-19T07:43:16;10.60;90.89
66576;SHT31;53428;47.686;16.584;2023-10-19T07:48:15;10.69;90.48
66576;SHT31;53428;47.686;16.584;2023-10-19T07:53:16;11.09;89.41
66576;SHT31;53428;47.686;16.584;2023-10-19T07:58:16;11.24;88.71
66576;SHT31;53428;47.686;16.584;2023-10-19T08:03:15;11.47;88.12
66576;SHT31;53428;47.686;16.584;2023-10-19T08:08:15;11.53;88.39
66576;SHT31;53428;47.686;16.584;2023-10-19T08:13:15;11.79;88.03
66576;SHT31;53428;47.686;16.584;2023-10-19T08:18:14;11.99;87.85
66576;SHT31;53428;47.686;16.584;2023-10-19T08:23:14;12.30;86.81
66576;SHT31;53428;47.686;16.584;2023-10-19T08:28:15;12.52;86.57
66576;SHT31;53428;47.686;16.584;2023-10-19T08:33:15;12.64;86.32
66576;SHT31;53428;47.686;16.584;2023-10-19T08:38:14;12.79;85.56
66576;SHT31;53428;47.686;16.584;2023-10-19T08:43:13;13.05;85.29
66576;SHT31;53428;47.686;16.584;2023-10-19T08:48:17;13.21;84.75
66576;SHT31;53428;47.686;16.584;2023-10-19T08:53:17;12.98;85.40
66576;SHT31;53428;47.686;16.584;2023-10-19T08:58:19;13.21;84.76
66576;SHT31;53428;47.686;16.584;2023-10-19T09:03:21;13.28;84.34
66576;SHT31;53428;47.686;16.584;2023-10-19T09:08:21;13.60;83.67
66576;SHT31;53428;47.686;16.584;2023-10-19T09:13:21;13.59;83.80
66576;SHT31;53428;47.686;16.584;2023-10-19T09:18:24;13.74;83.45
66576;SHT31;53428;47.686;16.584;2023-10-19T09:23:24;14.14;82.14
66576;SHT31;53428;47.686;16.584;2023-10-19T09:28:26;14.07;82.78
66576;SHT31;53428;47.686;16.584;2023-10-19T09:33:27;14.46;81.28
66576;SHT31;53428;47.686;16.584;2023-10-19T09:38:26;14.84;80.49
66576;SHT31;53428;47.686;16.584;2023-10-19T09:43:37;15.21;79.74
66576;SHT31;53428;47.686;16.584;2023-10-19T09:48:42;14.96;80.46
66576;SHT31;53428;47.686;16.584;2023-10-19T09:53:44;15.07;80.03
66576;SHT31;53428;47.686;16.584;2023-10-19T09:58:45;15.40;79.36
66576;SHT31;53428;47.686;16.584;2023-10-19T10:03:50;15.89;78.00
66576;SHT31;53428;47.686;16.584;2023-10-19T10:08:54;15.72;78.84
66576;SHT31;53428;47.686;16.584;2023-10-19T10:13:58;15.98;77.68
66576;SHT31;53428;47.686;16.584;2023-10-19T10:18:59;16.12;77.62
66576;SHT31;53428;47.686;16.584;2023-10-19T10:24:00;16.03;77.94
66576;SHT31;53428;47.686;16.584;2023-10-19T10:29:15;16.45;76.66
66576;SHT31;53428;47.686;16.584;2023-10-19T10:34:49;16.98;75.63
66576;SHT31;53428;47.686;16.584;2023-10-19T10:39:49;16.69;76.16
66576;SHT31;53428;47.686;16.584;2023-10-19T10:44:48;17.02;75.67
66576;SHT31;53428;47.686;16.584;2023-10-19T10:49:51;17.19;74.54
66576;SHT31;53428;47.686;16.584;2023-10-19T10:54:52;16.78;75.85
66576;SHT31;53428;47.686;16.584;2023-10-19T11:00:08;17.39;74.67
66576;SHT31;53428;47.686;16.584;2023-10-19T11:05:28;17.59;74.42
66576;SHT31;53428;47.686;16.584;2023-10-19T11:10:28;17.97;73.40
66576;SHT31;53428;47.686;16.584;2023-10-19T11:15:27;18.70;72.05
66576;SHT31;53428;47.686;16.584;2023-10-19T11:20:27;17.74;72.77
66576;SHT31;53428;47.686;16.584;2023-10-19T11:25:27;19.96;69.01
66576;SHT31;53428;47.686;16.584;2023-10-19T11:30:31;22.03;64.17
66576;SHT31;53428;47.686;16.584;2023-10-19T11:35:31;22.41;62.78
66576;SHT31;53428;47.686;16.584;2023-10-19T11:40:30;22.57;61.94
66576;SHT31;53428;47.686;16.584;2023-10-19T11:45:29;23.26;60.90
66576;SHT31;53428;47.686;16.584;2023-10-19T11:50:29;24.00;61.25
66576;SHT31;53428;47.686;16.584;2023-10-19T11:55:28;24.97;58.59
66576;SHT31;53428;47.686;16.584;2023-10-19T12:00:28;24.04;61.00
66576;SHT31;53428;47.686;16.584;2023-10-19T12:05:37;24.17;60.65
66576;SHT31;53428;47.686;16.584;2023-10-19T12:10:37;27.12;55.29
66576;SHT31;53428;47.686;16.584;2023-10-19T12:15:37;24.66;60.52
66576;SHT31;53428;47.686;16.584;2023-10-19T12:20:36;26.26;58.30
66576;SHT31;53428;47.686;16.584;2023-10-19T12:25:36;26.43;58.70
66576;SHT31;53428;47.686;16.584;2023-10-19T12:30:37;24.56;63.87
66576;SHT31;53428;47.686;16.584;2023-10-19T12:35:40;24.22;65.11
66576;SHT31;53428;47.686;16.584;2023-10-19T12:40:52;22.65;68.81
66576;SHT31;53428;47.686;16.584;2023-10-19T12:45:53;22.46;70.01
66576;SHT31;53428;47.686;16.584;2023-10-19T12:50:57;21.62;72.34
66576;SHT31;53428;47.686;16.584;2023-10-19T12:55:56;22.17;71.31
66576;SHT31;53428;47.686;16.584;2023-10-19T13:00:55;22.14;72.27
66576;SHT31;53428;47.686;16.584;2023-10-19T13:05:55;24.22;68.15
66576;SHT31;53428;47.686;16.584;2023-10-19T13:10:57;24.21;67.75
66576;SHT31;53428;47.686;16.584;2023-10-19T13:15:56;26.62;62.97
66576;SHT31;53428;47.686;16.584;2023-10-19T13:20:56;25.54;65.15
66576;SHT31;53428;47.686;16.584;2023-10-19T13:25:56;23.74;69.15
66576;SHT31;53428;47.686;16.584;2023-10-19T13:31:07;22.67;72.20
66576;SHT31;53428;47.686;16.584;2023-10-19T13:36:12;22.78;72.09
66576;SHT31;53428;47.686;16.584;2023-10-19T13:41:12;22.33;73.19
66576;SHT31;53428;47.686;16.584;2023-10-19T13:46:12;22.14;74.19
66576;SHT31;53428;47.686;16.584;2023-10-19T13:51:16;21.85;75.37
66576;SHT31;53428;47.686;16.584;2023-10-19T13:56:18;21.79;75.82
66576;SHT31;53428;47.686;16.584;2023-10-19T14:01:17;21.96;75.77
66576;SHT31;53428;47.686;16.584;2023-10-19T14:06:18;22.41;74.89
66576;SHT31;53428;47.686;16.584;2023-10-19T14:11:17;22.30;75.28
66576;SHT31;53428;47.686;16.584;2023-10-19T14:16:17;21.99;76.20
66576;SHT31;53428;47.686;16.584;2023-10-19T14:21:17;21.72;76.84
66576;SHT31;53428;47.686;16.584;2023-10-19T14:26:18;21.45;77.83
66576;SHT31;53428;47.686;16.584;2023-10-19T14:31:17;21.13;78.64
66576;SHT31;53428;47.686;16.584;2023-10-19T14:36:17;20.99;79.09
66576;SHT31;53428;47.686;16.584;2023-10-19T14:41:18;20.80;76.36
66576;SHT31;53428;47.686;16.584;2023-10-19T14:46:17;20.44;75.32
66576;SHT31;53428;47.686;16.584;2023-10-19T14:51:17;20.13;75.76
66576;SHT31;53428;47.686;16.584;2023-10-19T14:56:35;19.87;77.00
66576;SHT31;53428;47.686;16.584;2023-10-19T15:01:52;19.77;77.26
66576;SHT31;53428;47.686;16.584;2023-10-19T15:07:11;19.76;78.17
66576;SHT31;53428;47.686;16.584;2023-10-19T15:12:29;19.55;78.04
66576;SHT31;53428;47.686;16.584;2023-10-19T15:17:48;18.94;77.53
66576;SHT31;53428;47.686;16.584;2023-10-19T15:23:08;18.95;77.81
66576;SHT31;53428;47.686;16.584;2023-10-19T15:28:26;18.91;77.52
66576;SHT31;53428;47.686;16.584;2023-10-19T15:33:44;18.53;78.34
66576;SHT31;53428;47.686;16.584;2023-10-19T15:39:02;18.09;79.04
66576;SHT31;53428;47.686;16.584;2023-10-19T15:44:20;17.78;79.94
66576;SHT31;53428;47.686;16.584;2023-10-19T15:49:56;17.40;80.99
66576;SHT31;53428;47.686;16.584;2023-10-19T15:55:14;17.20;82.21
66576;SHT31;53428;47.686;16.584;2023-10-19T16:00:33;16.89;83.11
66576;SHT31;53428;47.686;16.584;2023-10-19T16:05:52;16.55;84.14
66576;SHT31;53428;47.686;16.584;2023-10-19T16:11:10;16.41;83.89
66576;SHT31;53428;47.686;16.584;2023-10-19T16:16:29;16.10;84.08
66576;SHT31;53428;47.686;16.584;2023-10-19T16:21:47;15.98;84.89
66576;SHT31;53428;47.686;16.584;2023-10-19T16:27:05;15.92;85.38
66576;SHT31;53428;47.686;16.584;2023-10-19T16:32:25;15.83;85.10
66576;SHT31;53428;47.686;16.584;2023-10-19T16:37:45;15.70;85.87
66576;SHT31;53428;47.686;16.584;2023-10-19T16:43:08;15.58;86.47
66576;SHT31;53428;47.686;16.584;2023-10-19T16:48:27;15.54;88.29
66576;SHT31;53428;47.686;16.584;2023-10-19T16:53:45;15.48;89.66
66576;SHT31;53428;47.686;16.584;2023-10-19T16:59:07;15.31;91.40
66576;SHT31;53428;47.686;16.584;2023-10-19T17:04:29;15.20;88.90
66576;SHT31;53428;47.686;16.584;2023-10-19T17:09:49;15.06;88.31
66576;SHT31;53428;47.686;16.584;2023-10-19T17:15:08;14.97;88.06
66576;SHT31;53428;47.686;16.584;2023-10-19T17:20:30;14.75;88.89
66576;SHT31;53428;47.686;16.584;2023-10-19T17:25:49;14.65;89.19
66576;SHT31;53428;47.686;16.584;2023-10-19T17:31:08;14.35;89.89
66576;SHT31;53428;47.686;16.584;2023-10-19T17:36:28;14.24;90.06
66576;SHT31;53428;47.686;16.584;2023-10-19T17:41:46;14.08;90.36
66576;SHT31;53428;47.686;16.584;2023-10-19T17:47:05;13.88;90.96
66576;SHT31;53428;47.686;16.584;2023-10-19T17:52:24;13.77;91.08
66576;SHT31;53428;47.686;16.584;2023-10-19T17:57:43;13.71;91.14
66576;SHT31;53428;47.686;16.584;2023-10-19T18:03:05;13.59;91.76
66576;SHT31;53428;47.686;16.584;2023-10-19T18:08:28;13.58;92.07
66576;SHT31;53428;47.686;16.584;2023-10-19T18:13:46;13.63;91.83
66576;SHT31;53428;47.686;16.584;2023-10-19T18:19:05;13.56;92.23
66576;SHT31;53428;47.686;16.584;2023-10-19T18:24:27;13.50;92.20
66576;SHT31;53428;47.686;16.584;2023-10-19T18:29:49;13.52;92.38
66576;SHT31;53428;47.686;16.584;2023-10-19T18:35:08;13.56;92.21
66576;SHT31;53428;47.686;16.584;2023-10-19T18:40:28;13.48;92.45
66576;SHT31;53428;47.686;16.584;2023-10-19T18:45:54;13.40;92.86
66576;SHT31;53428;47.686;16.584;2023-10-19T18:51:13;13.45;92.84
66576;SHT31;53428;47.686;16.584;2023-10-19T18:56:32;13.42;92.97
66576;SHT31;53428;47.686;16.584;2023-10-19T19:01:53;13.48;92.66
66576;SHT31;53428;47.686;16.584;2023-10-19T19:07:11;13.74;91.76
66576;SHT31;53428;47.686;16.584;2023-10-19T19:12:30;13.74;91.77
66576;SHT31;53428;47.686;16.584;2023-10-19T19:17:48;13.69;91.78
66576;SHT31;53428;47.686;16.584;2023-10-19T19:22:49;13.63;91.78
66576;SHT31;53428;47.686;16.584;2023-10-19T19:27:51;13.56;92.02
66576;SHT31;53428;47.686;16.584;2023-10-19T19:32:51;13.43;92.46
66576;SHT31;53428;47.686;16.584;2023-10-19T19:37:50;13.39;92.98
66576;SHT31;53428;47.686;16.584;2023-10-19T19:42:51;13.43;93.11
66576;SHT31;53428;47.686;16.584;2023-10-19T19:47:57;13.42;93.03
66576;SHT31;53428;47.686;16.584;2023-10-19T19:52:56;13.62;92.34
66576;SHT31;53428;47.686;16.584;2023-10-19T19:57:56;13.62;92.57
66576;SHT31;53428;47.686;16.584;2023-10-19T20:02:56;13.42;93.62
66576;SHT31;53428;47.686;16.584;2023-10-19T20:08:00;13.36;94.71
66576;SHT31;53428;47.686;16.584;2023-10-19T20:13:02;13.35;95.02
66576;SHT31;53428;47.686;16.584;2023-10-19T20:18:02;13.28;95.57
66576;SHT31;53428;47.686;16.584;2023-10-19T20:23:02;13.16;96.57
66576;SHT31;53428;47.686;16.584;2023-10-19T20:28:02;13.00;96.97
66576;SHT31;53428;47.686;16.584;2023-10-19T20:33:03;12.90;97.78
66576;SHT31;53428;47.686;16.584;2023-10-19T20:38:03;12.95;98.21
66576;SHT31;53428;47.686;16.584;2023-10-19T20:43:04;12.90;99.22
66576;SHT31;53428;47.686;16.584;2023-10-19T20:48:04;12.92;99.65
66576;SHT31;53428;47.686;16.584;2023-10-19T20:53:06;12.98;99.95
66576;SHT31;53428;47.686;16.584;2023-10-19T20:58:05;13.70;99.99
66576;SHT31;53428;47.686;16.584;2023-10-19T21:03:04;16.06;99.66
66576;SHT31;53428;47.686;16.584;2023-10-19T21:08:04;16.93;95.99
66576;SHT31;53428;47.686;16.584;2023-10-19T21:13:05;17.41;93.91
66576;SHT31;53428;47.686;16.584;2023-10-19T21:18:04;17.69;92.88
66576;SHT31;53428;47.686;16.584;2023-10-19T21:23:06;17.81;92.58
66576;SHT31;53428;47.686;16.584;2023-10-19T21:28:05;17.47;93.83
66576;SHT31;53428;47.686;16.584;2023-10-19T21:33:05;17.47;93.93
66576;SHT31;53428;47.686;16.584;2023-10-19T21:38:04;17.54;93.45
66576;SHT31;53428;47.686;16.584;2023-10-19T21:43:04;17.71;92.93
66576;SHT31;53428;47.686;16.584;2023-10-19T21:48:07;17.80;92.74
66576;SHT31;53428;47.686;16.584;2023-10-19T21:53:07;17.84;92.78
66576;SHT31;53428;47.686;16.584;2023-10-19T21:58:06;17.78;93.12
66576;SHT31;53428;47.686;16.584;2023-10-19T22:03:05;17.66;93.64
66576;SHT31;53428;47.686;16.584;2023-10-19T22:08:05;17.59;93.96
66576;SHT31;53428;47.686;16.584;2023-10-19T22:13:08;17.50;94.29
66576;SHT31;53428;47.686;16.584;2023-10-19T22:18:08;17.47;94.60
66576;SHT31;53428;47.686;16.584;2023-10-19T22:23:07;17.60;93.85
66576;SHT31;53428;47.686;16.584;2023-10-19T22:28:07;17.51;93.99
66576;SHT31;53428;47.686;16.584;2023-10-19T22:33:07;17.46;94.35
66576;SHT31;53428;47.686;16.584;2023-10-19T22:38:07;17.61;93.52
66576;SHT31;53428;47.686;16.584;2023-10-19T22:43:10;17.59;93.68
66576;SHT31;53428;47.686;16.584;2023-10-19T22:48:10;17.60;93.47
66576;SHT31;53428;47.686;16.584;2023-10-19T22:53:09;17.77;92.48
66576;SHT31;53428;47.686;16.584;2023-10-19T22:58:08;18.01;91.22
66576;SHT31;53428;47.686;16.584;2023-10-19T23:03:07;17.98;91.25
66576;SHT31;53428;47.686;16.584;2023-10-19T23:08:08;18.16;90.52
66576;SHT31;53428;47.686;16.584;2023-10-19T23:13:07;18.04;90.63
66576;SHT31;53428;47.686;16.584;2023-10-19T23:18:10;18.39;89.39
66576;SHT31;53428;47.686;16.584;2023-10-19T23:23:09;18.36;89.17
66576;SHT31;53428;47.686;16.584;2023-10-19T23:28:11;18.70;87.79
66576;SHT31;53428;47.686;16.584;2023-10-19T23:33:13;19.00;86.63
66576;SHT31;53428;47.686;16.584;2023-10-19T23:38:13;19.33;85.38
66576;SHT31;53428;47.686;16.584;2023-10-19T23:43:13;19.35;85.43
66576;SHT31;53428;47.686;16.584;2023-10-19T23:48:13;19.19;85.76
66576;SHT31;53428;47.686;16.584;2023-10-19T23:53:16;19.33;85.61
66576;SHT31;53428;47.686;16.584;2023-10-19T23:58:15;19.26;85.84
